Time;durP1;ratioP1;P1;durP2;ratioP2;P2;SDS_P1;SDS_P2;PMS_P1;PMS_P2;Temp;Humidity;BMP_temperature;BMP_pressure;BME280_temperature;BME280_humidity;BME280_pressure;Samples;Min_cycle;Max_cycle;Signal;HPM_P1;HPM_P2
2019/07/03 00:00:06;;;;;;;8.249999;7.45;;;;;;;15.32;70.62305;95519.37;;;;
2019/07/03 00:01:08;;;;;;;8.249999;7.45;;;;;;;15.32;70.62305;95519.37;;;;
2019/07/03 00:02:09;;;;;;;8.249999;7.45;;;;;;;15.32;70.62305;95519.37;;;;
2019/07/03 00:03:10;;;;;;;8.249999;7.45;;;;;;;15.32;70.62305;95519.37;;;;
2019/07/03 00:04:11;;;;;;;8.249999;7.45;;;;;;;15.32;70.62305;95519.37;;;;
2019/07/03 00:05:12;;;;;;;8.249999;7.45;;;;;;;15.32;70.62305;95519.37;;;;
2019/07/03 00:06:13;;;;;;;8.249999;7.45;;;;;;;15.32;70.62305;95519.37;;;;
2019/07/03 00:07:14;;;;;;;8.249999;7.45;;;;;;;15.32;70.62305;95519.37;;;;
2019/07/03 00:08:15;;;;;;;8.249999;7.45;;;;;;;15.32;70.62305;95519.37;;;;
2019/07/03 00:09:17;;;;;;;8.700001;7.900001;;;;;;;15.15;71.8623;95506.42;;;;
2019/07/03 00:10:18;;;;;;;8.700001;7.900001;;;;;;;15.15;71.8623;95506.42;;;;
2019/07/03 00:11:19;;;;;;;8.700001;7.900001;;;;;;;15.15;71.8623;95506.42;;;;
2019/07/03 00:12:20;;;;;;;8.700001;7.900001;;;;;;;15.15;71.8623;95506.42;;;;
2019/07/03 00:13:21;;;;;;;8.700001;7.900001;;;;;;;15.15;71.8623;95506.42;;;;
2019/07/03 00:14:22;;;;;;;8.700001;7.900001;;;;;;;15.15;71.8623;95506.42;;;;
2019/07/03 00:15:23;;;;;;;8.700001;7.900001;;;;;;;15.15;71.8623;95506.42;;;;
2019/07/03 00:16:24;;;;;;;8.700001;7.900001;;;;;;;15.15;71.8623;95506.42;;;;
2019/07/03 00:17:26;;;;;;;8.700001;7.900001;;;;;;;15.15;71.8623;95506.42;;;;
2019/07/03 00:18:27;;;;;;;8.700001;7.900001;;;;;;;15.15;71.8623;95506.42;;;;
2019/07/03 00:19:28;;;;;;;8.300001;7.55;;;;;;;15.07;73.24414;95507.44;;;;
2019/07/03 00:20:29;;;;;;;8.300001;7.55;;;;;;;15.07;73.24414;95507.44;;;;
2019/07/03 00:21:30;;;;;;;8.300001;7.55;;;;;;;15.07;73.24414;95507.44;;;;
2019/07/03 00:22:31;;;;;;;8.300001;7.55;;;;;;;15.07;73.24414;95507.44;;;;
2019/07/03 00:23:32;;;;;;;8.300001;7.55;;;;;;;15.07;73.24414;95507.44;;;;
2019/07/03 00:24:33;;;;;;;8.300001;7.55;;;;;;;15.07;73.24414;95507.44;;;;
2019/07/03 00:25:35;;;;;;;8.300001;7.55;;;;;;;15.07;73.24414;95507.44;;;;
2019/07/03 00:26:36;;;;;;;8.300001;7.55;;;;;;;15.07;73.24414;95507.44;;;;
2019/07/03 00:27:37;;;;;;;8.300001;7.55;;;;;;;15.07;73.24414;95507.44;;;;
2019/07/03 00:28:38;;;;;;;8.300001;7.55;;;;;;;15.07;73.24414;95507.44;;;;
2019/07/03 00:29:39;;;;;;;8.300001;7.55;;;;;;;15.07;73.24414;95507.44;;;;
2019/07/03 00:30:40;;;;;;;8.15;7.3;;;;;;;14.9;74.41602;95498.46;;;;
2019/07/03 00:31:41;;;;;;;8.15;7.3;;;;;;;14.9;74.41602;95498.46;;;;
2019/07/03 00:32:42;;;;;;;8.15;7.3;;;;;;;14.9;74.41602;95498.46;;;;
2019/07/03 00:33:43;;;;;;;8.15;7.3;;;;;;;14.9;74.41602;95498.46;;;;
2019/07/03 00:34:44;;;;;;;8.15;7.3;;;;;;;14.9;74.41602;95498.46;;;;
2019/07/03 00:35:45;;;;;;;8.15;7.3;;;;;;;14.9;74.41602;95498.46;;;;
2019/07/03 00:36:46;;;;;;;8.15;7.3;;;;;;;14.9;74.41602;95498.46;;;;
2019/07/03 00:37:48;;;;;;;8.15;7.3;;;;;;;14.9;74.41602;95498.46;;;;
2019/07/03 00:38:49;;;;;;;8.15;7.3;;;;;;;14.9;74.41602;95498.46;;;;
2019/07/03 00:39:50;;;;;;;8.15;7.3;;;;;;;14.9;74.41602;95498.46;;;;
2019/07/03 00:40:51;;;;;;;8.650002;6.5;;;;;;;14.8;75.52148;95494.81;;;;
2019/07/03 00:41:52;;;;;;;8.650002;6.5;;;;;;;14.8;75.52148;95494.81;;;;
2019/07/03 00:42:53;;;;;;;8.650002;6.5;;;;;;;14.8;75.52148;95494.81;;;;
2019/07/03 00:43:54;;;;;;;8.650002;6.5;;;;;;;14.8;75.52148;95494.81;;;;
2019/07/03 00:44:55;;;;;;;8.650002;6.5;;;;;;;14.8;75.52148;95494.81;;;;
2019/07/03 00:45:56;;;;;;;8.650002;6.5;;;;;;;14.8;75.52148;95494.81;;;;
2019/07/03 00:46:57;;;;;;;8.650002;6.5;;;;;;;14.8;75.52148;95494.81;;;;
2019/07/03 00:47:58;;;;;;;8.650002;6.5;;;;;;;14.8;75.52148;95494.81;;;;
2019/07/03 00:48:59;;;;;;;8.650002;6.5;;;;;;;14.8;75.52148;95494.81;;;;
2019/07/03 00:50:00;;;;;;;8.650002;6.5;;;;;;;14.8;75.52148;95494.81;;;;
2019/07/03 00:51:02;;;;;;;8.650002;6.5;;;;;;;14.8;75.52148;95494.81;;;;
2019/07/03 00:52:03;;;;;;;6.05;5.45;;;;;;;14.58;76.29395;95496.22;;;;
2019/07/03 00:53:04;;;;;;;6.05;5.45;;;;;;;14.58;76.29395;95496.22;;;;
2019/07/03 00:54:05;;;;;;;6.05;5.45;;;;;;;14.58;76.29395;95496.22;;;;
2019/07/03 00:55:06;;;;;;;6.05;5.45;;;;;;;14.58;76.29395;95496.22;;;;
2019/07/03 00:56:08;;;;;;;6.05;5.45;;;;;;;14.58;76.29395;95496.22;;;;
2019/07/03 00:57:09;;;;;;;6.05;5.45;;;;;;;14.58;76.29395;95496.22;;;;
2019/07/03 00:58:10;;;;;;;6.05;5.45;;;;;;;14.58;76.29395;95496.22;;;;
2019/07/03 00:59:11;;;;;;;6.05;5.45;;;;;;;14.58;76.29395;95496.22;;;;
2019/07/03 01:00:12;;;;;;;6.05;5.45;;;;;;;14.58;76.29395;95496.22;;;;
2019/07/03 01:01:13;;;;;;;6.05;5.45;;;;;;;14.58;76.29395;95496.22;;;;
2019/07/03 01:02:14;;;;;;;6.4;5.75;;;;;;;14.45;76.75684;95493.06;;;;
2019/07/03 01:03:15;;;;;;;6.4;5.75;;;;;;;14.45;76.75684;95493.06;;;;
2019/07/03 01:04:17;;;;;;;6.4;5.75;;;;;;;14.45;76.75684;95493.06;;;;
2019/07/03 01:05:18;;;;;;;6.4;5.75;;;;;;;14.45;76.75684;95493.06;;;;
2019/07/03 01:06:19;;;;;;;6.4;5.75;;;;;;;14.45;76.75684;95493.06;;;;
2019/07/03 01:07:20;;;;;;;6.4;5.75;;;;;;;14.45;76.75684;95493.06;;;;
2019/07/03 01:08:21;;;;;;;6.4;5.75;;;;;;;14.45;76.75684;95493.06;;;;
2019/07/03 01:09:22;;;;;;;6.4;5.75;;;;;;;14.45;76.75684;95493.06;;;;
2019/07/03 01:10:23;;;;;;;6.4;5.75;;;;;;;14.45;76.75684;95493.06;;;;
2019/07/03 01:11:24;;;;;;;6.4;5.75;;;;;;;14.45;76.75684;95493.06;;;;
2019/07/03 01:12:26;;;;;;;6.4;5.75;;;;;;;14.45;76.75684;95493.06;;;;
2019/07/03 01:13:27;;;;;;;5.5;5;;;;;;;14.24;77.07715;95486.97;;;;
2019/07/03 01:14:28;;;;;;;5.5;5;;;;;;;14.24;77.07715;95486.97;;;;
2019/07/03 01:15:29;;;;;;;5.5;5;;;;;;;14.24;77.07715;95486.97;;;;
2019/07/03 01:16:30;;;;;;;5.5;5;;;;;;;14.24;77.07715;95486.97;;;;
2019/07/03 01:17:31;;;;;;;5.5;5;;;;;;;14.24;77.07715;95486.97;;;;
2019/07/03 01:18:32;;;;;;;5.5;5;;;;;;;14.24;77.07715;95486.97;;;;
2019/07/03 01:19:34;;;;;;;5.5;5;;;;;;;14.24;77.07715;95486.97;;;;
2019/07/03 01:20:35;;;;;;;5.5;5;;;;;;;14.24;77.07715;95486.97;;;;
2019/07/03 01:21:36;;;;;;;5.5;5;;;;;;;14.24;77.07715;95486.97;;;;
2019/07/03 01:22:37;;;;;;;5.5;5;;;;;;;14.24;77.07715;95486.97;;;;
2019/07/03 01:23:38;;;;;;;5.8;5.2;;;;;;;14.12;77.36914;95499.84;;;;
2019/07/03 01:24:40;;;;;;;5.8;5.2;;;;;;;14.12;77.36914;95499.84;;;;
2019/07/03 01:25:41;;;;;;;5.8;5.2;;;;;;;14.12;77.36914;95499.84;;;;
2019/07/03 01:26:42;;;;;;;5.8;5.2;;;;;;;14.12;77.36914;95499.84;;;;
2019/07/03 01:27:43;;;;;;;5.8;5.2;;;;;;;14.12;77.36914;95499.84;;;;
2019/07/03 01:28:44;;;;;;;5.8;5.2;;;;;;;14.12;77.36914;95499.84;;;;
2019/07/03 01:29:46;;;;;;;5.8;5.2;;;;;;;14.12;77.36914;95499.84;;;;
2019/07/03 01:30:47;;;;;;;5.8;5.2;;;;;;;14.12;77.36914;95499.84;;;;
2019/07/03 01:31:48;;;;;;;5.8;5.2;;;;;;;14.12;77.36914;95499.84;;;;
2019/07/03 01:32:49;;;;;;;5.8;5.2;;;;;;;14.12;77.36914;95499.84;;;;
2019/07/03 01:33:51;;;;;;;5.100001;4.600001;;;;;;;13.96;77.45996;95502.48;;;;
2019/07/03 01:34:52;;;;;;;5.100001;4.600001;;;;;;;13.96;77.45996;95502.48;;;;
2019/07/03 01:35:53;;;;;;;5.100001;4.600001;;;;;;;13.96;77.45996;95502.48;;;;
2019/07/03 01:36:54;;;;;;;5.100001;4.600001;;;;;;;13.96;77.45996;95502.48;;;;
2019/07/03 01:37:55;;;;;;;5.100001;4.600001;;;;;;;13.96;77.45996;95502.48;;;;
2019/07/03 01:38:56;;;;;;;5.100001;4.600001;;;;;;;13.96;77.45996;95502.48;;;;
2019/07/03 01:39:57;;;;;;;5.100001;4.600001;;;;;;;13.96;77.45996;95502.48;;;;
2019/07/03 01:40:58;;;;;;;5.100001;4.600001;;;;;;;13.96;77.45996;95502.48;;;;
2019/07/03 01:41:59;;;;;;;5.100001;4.600001;;;;;;;13.96;77.45996;95502.48;;;;
2019/07/03 01:43:01;;;;;;;5.100001;4.600001;;;;;;;13.96;77.45996;95502.48;;;;
2019/07/03 01:44:02;;;;;;;5.100001;4.600001;;;;;;;13.96;77.45996;95502.48;;;;
2019/07/03 01:45:03;;;;;;;5.650001;4.699999;;;;;;;13.99;77.49707;95512.45;;;;
2019/07/03 01:46:04;;;;;;;5.650001;4.699999;;;;;;;13.99;77.49707;95512.45;;;;
2019/07/03 01:47:05;;;;;;;5.650001;4.699999;;;;;;;13.99;77.49707;95512.45;;;;
2019/07/03 01:48:07;;;;;;;5.650001;4.699999;;;;;;;13.99;77.49707;95512.45;;;;
2019/07/03 01:49:08;;;;;;;5.650001;4.699999;;;;;;;13.99;77.49707;95512.45;;;;
2019/07/03 01:50:09;;;;;;;5.650001;4.699999;;;;;;;13.99;77.49707;95512.45;;;;
2019/07/03 01:51:10;;;;;;;5.650001;4.699999;;;;;;;13.99;77.49707;95512.45;;;;
2019/07/03 01:52:12;;;;;;;5.650001;4.699999;;;;;;;13.99;77.49707;95512.45;;;;
2019/07/03 01:53:13;;;;;;;5.650001;4.699999;;;;;;;13.99;77.49707;95512.45;;;;
2019/07/03 01:54:14;;;;;;;5.650001;4.699999;;;;;;;13.99;77.49707;95512.45;;;;
2019/07/03 01:55:15;;;;;;;4.950001;4.450001;;;;;;;14;77.49902;95511.78;;;;
2019/07/03 01:56:17;;;;;;;4.950001;4.450001;;;;;;;14;77.49902;95511.78;;;;
2019/07/03 01:57:18;;;;;;;4.950001;4.450001;;;;;;;14;77.49902;95511.78;;;;
2019/07/03 01:58:19;;;;;;;4.950001;4.450001;;;;;;;14;77.49902;95511.78;;;;
2019/07/03 01:59:20;;;;;;;4.950001;4.450001;;;;;;;14;77.49902;95511.78;;;;
2019/07/03 02:00:21;;;;;;;4.950001;4.450001;;;;;;;14;77.49902;95511.78;;;;
2019/07/03 02:01:38;;;;;;;4.950001;4.450001;;;;;;;14;77.49902;95511.78;;;;
2019/07/03 02:02:39;;;;;;;4.950001;4.450001;;;;;;;14;77.49902;95511.78;;;;
2019/07/03 02:03:40;;;;;;;4.950001;4.450001;;;;;;;14;77.49902;95511.78;;;;
2019/07/03 02:04:41;;;;;;;4.950001;4.450001;;;;;;;14;77.49902;95511.78;;;;
2019/07/03 02:05:42;;;;;;;5.5;4.45;;;;;;;14;77.3916;95509.06;;;;
2019/07/03 02:06:43;;;;;;;5.5;4.45;;;;;;;14;77.3916;95509.06;;;;
2019/07/03 02:07:44;;;;;;;5.5;4.45;;;;;;;14;77.3916;95509.06;;;;
2019/07/03 02:08:46;;;;;;;5.5;4.45;;;;;;;14;77.3916;95509.06;;;;
2019/07/03 02:09:47;;;;;;;5.5;4.45;;;;;;;14;77.3916;95509.06;;;;
2019/07/03 02:10:48;;;;;;;5.5;4.45;;;;;;;14;77.3916;95509.06;;;;
2019/07/03 02:11:49;;;;;;;5.5;4.45;;;;;;;14;77.3916;95509.06;;;;
2019/07/03 02:12:50;;;;;;;5.5;4.45;;;;;;;14;77.3916;95509.06;;;;
2019/07/03 02:13:51;;;;;;;5.5;4.45;;;;;;;14;77.3916;95509.06;;;;
2019/07/03 02:14:52;;;;;;;5.5;4.45;;;;;;;14;77.3916;95509.06;;;;
2019/07/03 02:15:54;;;;;;;5.5;4.45;;;;;;;14;77.3916;95509.06;;;;
2019/07/03 02:16:55;;;;;;;5.100001;4.4;;;;;;;13.86;77.45215;95514.15;;;;
2019/07/03 02:17:56;;;;;;;5.100001;4.4;;;;;;;13.86;77.45215;95514.15;;;;
2019/07/03 02:18:57;;;;;;;5.100001;4.4;;;;;;;13.86;77.45215;95514.15;;;;
2019/07/03 02:19:58;;;;;;;5.100001;4.4;;;;;;;13.86;77.45215;95514.15;;;;
2019/07/03 02:21:00;;;;;;;5.100001;4.4;;;;;;;13.86;77.45215;95514.15;;;;
2019/07/03 02:22:01;;;;;;;5.100001;4.4;;;;;;;13.86;77.45215;95514.15;;;;
2019/07/03 02:23:02;;;;;;;5.100001;4.4;;;;;;;13.86;77.45215;95514.15;;;;
2019/07/03 02:24:03;;;;;;;5.100001;4.4;;;;;;;13.86;77.45215;95514.15;;;;
2019/07/03 02:25:04;;;;;;;5.100001;4.4;;;;;;;13.86;77.45215;95514.15;;;;
2019/07/03 02:26:06;;;;;;;5.100001;4.4;;;;;;;13.86;77.45215;95514.15;;;;
2019/07/03 02:27:07;;;;;;;4.4;3.95;;;;;;;13.78;77.59961;95520.56;;;;
2019/07/03 02:28:08;;;;;;;4.4;3.95;;;;;;;13.78;77.59961;95520.56;;;;
2019/07/03 02:29:10;;;;;;;4.4;3.95;;;;;;;13.78;77.59961;95520.56;;;;
2019/07/03 02:30:11;;;;;;;4.4;3.95;;;;;;;13.78;77.59961;95520.56;;;;
2019/07/03 02:31:12;;;;;;;4.4;3.95;;;;;;;13.78;77.59961;95520.56;;;;
2019/07/03 02:32:13;;;;;;;4.4;3.95;;;;;;;13.78;77.59961;95520.56;;;;
2019/07/03 02:33:15;;;;;;;4.4;3.95;;;;;;;13.78;77.59961;95520.56;;;;
2019/07/03 02:34:16;;;;;;;4.4;3.95;;;;;;;13.78;77.59961;95520.56;;;;
2019/07/03 02:35:17;;;;;;;4.4;3.95;;;;;;;13.78;77.59961;95520.56;;;;
2019/07/03 02:36:18;;;;;;;4.4;3.95;;;;;;;13.78;77.59961;95520.56;;;;
2019/07/03 02:37:19;;;;;;;4.4;3.95;;;;;;;13.78;77.59961;95520.56;;;;
2019/07/03 02:38:20;;;;;;;5.05;4.55;;;;;;;13.77;77.55469;95524.74;;;;
2019/07/03 02:39:22;;;;;;;5.05;4.55;;;;;;;13.77;77.55469;95524.74;;;;
2019/07/03 02:40:23;;;;;;;5.05;4.55;;;;;;;13.77;77.55469;95524.74;;;;
2019/07/03 02:41:24;;;;;;;5.05;4.55;;;;;;;13.77;77.55469;95524.74;;;;
2019/07/03 02:42:26;;;;;;;5.05;4.55;;;;;;;13.77;77.55469;95524.74;;;;
2019/07/03 02:43:27;;;;;;;5.05;4.55;;;;;;;13.77;77.55469;95524.74;;;;
2019/07/03 02:44:28;;;;;;;5.05;4.55;;;;;;;13.77;77.55469;95524.74;;;;
2019/07/03 02:45:29;;;;;;;5.05;4.55;;;;;;;13.77;77.55469;95524.74;;;;
2019/07/03 02:46:30;;;;;;;5.05;4.55;;;;;;;13.77;77.55469;95524.74;;;;
2019/07/03 02:47:31;;;;;;;5.05;4.55;;;;;;;13.77;77.55469;95524.74;;;;
2019/07/03 02:48:33;;;;;;;5.2;4.349999;;;;;;;14.01;77.39258;95531.05;;;;
2019/07/03 02:49:34;;;;;;;5.2;4.349999;;;;;;;14.01;77.39258;95531.05;;;;
2019/07/03 02:50:35;;;;;;;5.2;4.349999;;;;;;;14.01;77.39258;95531.05;;;;
2019/07/03 02:51:36;;;;;;;5.2;4.349999;;;;;;;14.01;77.39258;95531.05;;;;
2019/07/03 02:52:37;;;;;;;5.2;4.349999;;;;;;;14.01;77.39258;95531.05;;;;
2019/07/03 02:53:38;;;;;;;5.2;4.349999;;;;;;;14.01;77.39258;95531.05;;;;
2019/07/03 02:54:39;;;;;;;5.2;4.349999;;;;;;;14.01;77.39258;95531.05;;;;
2019/07/03 02:55:41;;;;;;;5.2;4.349999;;;;;;;14.01;77.39258;95531.05;;;;
2019/07/03 02:56:42;;;;;;;5.2;4.349999;;;;;;;14.01;77.39258;95531.05;;;;
2019/07/03 02:57:43;;;;;;;5.2;4.349999;;;;;;;14.01;77.39258;95531.05;;;;
2019/07/03 02:58:44;;;;;;;4.5;4.149999;;;;;;;14.17;77.41016;95536.58;;;;
2019/07/03 02:59:45;;;;;;;4.5;4.149999;;;;;;;14.17;77.41016;95536.58;;;;
2019/07/03 03:00:46;;;;;;;4.5;4.149999;;;;;;;14.17;77.41016;95536.58;;;;
2019/07/03 03:01:47;;;;;;;4.5;4.149999;;;;;;;14.17;77.41016;95536.58;;;;
2019/07/03 03:02:48;;;;;;;4.5;4.149999;;;;;;;14.17;77.41016;95536.58;;;;
2019/07/03 03:03:49;;;;;;;4.5;4.149999;;;;;;;14.17;77.41016;95536.58;;;;
2019/07/03 03:04:51;;;;;;;4.5;4.149999;;;;;;;14.17;77.41016;95536.58;;;;
2019/07/03 03:05:52;;;;;;;4.5;4.149999;;;;;;;14.17;77.41016;95536.58;;;;
2019/07/03 03:06:53;;;;;;;4.5;4.149999;;;;;;;14.17;77.41016;95536.58;;;;
2019/07/03 03:07:54;;;;;;;4.5;4.149999;;;;;;;14.17;77.41016;95536.58;;;;
2019/07/03 03:08:55;;;;;;;4.5;4.149999;;;;;;;14.17;77.41016;95536.58;;;;
2019/07/03 03:09:56;;;;;;;5.65;5.100001;;;;;;;14.3;77.3457;95544.93;;;;
2019/07/03 03:10:57;;;;;;;5.65;5.100001;;;;;;;14.3;77.3457;95544.93;;;;
2019/07/03 03:11:58;;;;;;;5.65;5.100001;;;;;;;14.3;77.3457;95544.93;;;;
2019/07/03 03:12:59;;;;;;;5.65;5.100001;;;;;;;14.3;77.3457;95544.93;;;;
2019/07/03 03:14:00;;;;;;;5.65;5.100001;;;;;;;14.3;77.3457;95544.93;;;;
2019/07/03 03:15:01;;;;;;;5.65;5.100001;;;;;;;14.3;77.3457;95544.93;;;;
2019/07/03 03:16:03;;;;;;;5.65;5.100001;;;;;;;14.3;77.3457;95544.93;;;;
2019/07/03 03:17:04;;;;;;;5.65;5.100001;;;;;;;14.3;77.3457;95544.93;;;;
2019/07/03 03:18:05;;;;;;;5.65;5.100001;;;;;;;14.3;77.3457;95544.93;;;;
2019/07/03 03:19:06;;;;;;;5.65;5.100001;;;;;;;14.3;77.3457;95544.93;;;;
2019/07/03 03:20:07;;;;;;;5.65;5.15;;;;;;;14.35;77.83008;95542.69;;;;
2019/07/03 03:21:09;;;;;;;5.65;5.15;;;;;;;14.35;77.83008;95542.69;;;;
2019/07/03 03:22:10;;;;;;;5.65;5.15;;;;;;;14.35;77.83008;95542.69;;;;
2019/07/03 03:23:11;;;;;;;5.65;5.15;;;;;;;14.35;77.83008;95542.69;;;;
2019/07/03 03:24:12;;;;;;;5.65;5.15;;;;;;;14.35;77.83008;95542.69;;;;
2019/07/03 03:25:13;;;;;;;5.65;5.15;;;;;;;14.35;77.83008;95542.69;;;;
2019/07/03 03:26:14;;;;;;;5.65;5.15;;;;;;;14.35;77.83008;95542.69;;;;
2019/07/03 03:27:16;;;;;;;5.65;5.15;;;;;;;14.35;77.83008;95542.69;;;;
2019/07/03 03:28:17;;;;;;;5.65;5.15;;;;;;;14.35;77.83008;95542.69;;;;
2019/07/03 03:29:18;;;;;;;5.65;5.15;;;;;;;14.35;77.83008;95542.69;;;;
2019/07/03 03:30:19;;;;;;;5.65;5.15;;;;;;;14.35;77.83008;95542.69;;;;
2019/07/03 03:31:20;;;;;;;6.2;5.4;;;;;;;14.3;78.38086;95546.28;;;;
2019/07/03 03:32:21;;;;;;;6.2;5.4;;;;;;;14.3;78.38086;95546.28;;;;
2019/07/03 03:33:22;;;;;;;6.2;5.4;;;;;;;14.3;78.38086;95546.28;;;;
2019/07/03 03:34:23;;;;;;;6.2;5.4;;;;;;;14.3;78.38086;95546.28;;;;
2019/07/03 03:35:24;;;;;;;6.2;5.4;;;;;;;14.3;78.38086;95546.28;;;;
2019/07/03 03:36:25;;;;;;;6.2;5.4;;;;;;;14.3;78.38086;95546.28;;;;
2019/07/03 03:37:27;;;;;;;6.2;5.4;;;;;;;14.3;78.38086;95546.28;;;;
2019/07/03 03:38:28;;;;;;;6.2;5.4;;;;;;;14.3;78.38086;95546.28;;;;
2019/07/03 03:39:29;;;;;;;6.2;5.4;;;;;;;14.3;78.38086;95546.28;;;;
2019/07/03 03:40:30;;;;;;;6.2;5.4;;;;;;;14.3;78.38086;95546.28;;;;
2019/07/03 03:41:31;;;;;;;5.85;4.9;;;;;;;14.04;78.93848;95543.73;;;;
2019/07/03 03:42:32;;;;;;;5.85;4.9;;;;;;;14.04;78.93848;95543.73;;;;
2019/07/03 03:43:33;;;;;;;5.85;4.9;;;;;;;14.04;78.93848;95543.73;;;;
2019/07/03 03:44:34;;;;;;;5.85;4.9;;;;;;;14.04;78.93848;95543.73;;;;
2019/07/03 03:45:35;;;;;;;5.85;4.9;;;;;;;14.04;78.93848;95543.73;;;;
2019/07/03 03:46:36;;;;;;;5.85;4.9;;;;;;;14.04;78.93848;95543.73;;;;
2019/07/03 03:47:37;;;;;;;5.85;4.9;;;;;;;14.04;78.93848;95543.73;;;;
2019/07/03 03:48:38;;;;;;;5.85;4.9;;;;;;;14.04;78.93848;95543.73;;;;
2019/07/03 03:49:39;;;;;;;5.85;4.9;;;;;;;14.04;78.93848;95543.73;;;;
2019/07/03 03:50:40;;;;;;;5.85;4.9;;;;;;;14.04;78.93848;95543.73;;;;
2019/07/03 03:51:42;;;;;;;5.849999;5.050001;;;;;;;13.89;79.63281;95547.17;;;;
2019/07/03 03:52:43;;;;;;;5.849999;5.050001;;;;;;;13.89;79.63281;95547.17;;;;
2019/07/03 03:53:44;;;;;;;5.849999;5.050001;;;;;;;13.89;79.63281;95547.17;;;;
2019/07/03 03:54:45;;;;;;;5.849999;5.050001;;;;;;;13.89;79.63281;95547.17;;;;
2019/07/03 03:55:46;;;;;;;5.849999;5.050001;;;;;;;13.89;79.63281;95547.17;;;;
2019/07/03 03:56:47;;;;;;;5.849999;5.050001;;;;;;;13.89;79.63281;95547.17;;;;
2019/07/03 03:57:48;;;;;;;5.849999;5.050001;;;;;;;13.89;79.63281;95547.17;;;;
2019/07/03 03:58:49;;;;;;;5.849999;5.050001;;;;;;;13.89;79.63281;95547.17;;;;
2019/07/03 03:59:50;;;;;;;5.849999;5.050001;;;;;;;13.89;79.63281;95547.17;;;;
2019/07/03 04:00:51;;;;;;;5.849999;5.050001;;;;;;;13.89;79.63281;95547.17;;;;
2019/07/03 04:01:53;;;;;;;5.849999;5.050001;;;;;;;13.89;79.63281;95547.17;;;;
2019/07/03 04:02:54;;;;;;;6.149999;5.55;;;;;;;13.76;80.16797;95567.89;;;;
2019/07/03 04:03:55;;;;;;;6.149999;5.55;;;;;;;13.76;80.16797;95567.89;;;;
2019/07/03 04:04:56;;;;;;;6.149999;5.55;;;;;;;13.76;80.16797;95567.89;;;;
2019/07/03 04:05:57;;;;;;;6.149999;5.55;;;;;;;13.76;80.16797;95567.89;;;;
2019/07/03 04:06:58;;;;;;;6.149999;5.55;;;;;;;13.76;80.16797;95567.89;;;;
2019/07/03 04:07:59;;;;;;;6.149999;5.55;;;;;;;13.76;80.16797;95567.89;;;;
2019/07/03 04:09:00;;;;;;;6.149999;5.55;;;;;;;13.76;80.16797;95567.89;;;;
2019/07/03 04:10:02;;;;;;;6.149999;5.55;;;;;;;13.76;80.16797;95567.89;;;;
2019/07/03 04:11:03;;;;;;;6.149999;5.55;;;;;;;13.76;80.16797;95567.89;;;;
2019/07/03 04:12:04;;;;;;;6.149999;5.55;;;;;;;13.76;80.16797;95567.89;;;;
2019/07/03 04:13:06;;;;;;;6.100001;5.299999;;;;;;;13.81;80.62891;95572.97;;;;
2019/07/03 04:14:07;;;;;;;6.100001;5.299999;;;;;;;13.81;80.62891;95572.97;;;;
2019/07/03 04:15:08;;;;;;;6.100001;5.299999;;;;;;;13.81;80.62891;95572.97;;;;
2019/07/03 04:16:09;;;;;;;6.100001;5.299999;;;;;;;13.81;80.62891;95572.97;;;;
2019/07/03 04:17:10;;;;;;;6.100001;5.299999;;;;;;;13.81;80.62891;95572.97;;;;
2019/07/03 04:18:12;;;;;;;6.100001;5.299999;;;;;;;13.81;80.62891;95572.97;;;;
2019/07/03 04:19:13;;;;;;;6.100001;5.299999;;;;;;;13.81;80.62891;95572.97;;;;
2019/07/03 04:20:14;;;;;;;6.100001;5.299999;;;;;;;13.81;80.62891;95572.97;;;;
2019/07/03 04:21:15;;;;;;;6.100001;5.299999;;;;;;;13.81;80.62891;95572.97;;;;
2019/07/03 04:22:16;;;;;;;6.100001;5.299999;;;;;;;13.81;80.62891;95572.97;;;;
2019/07/03 04:23:17;;;;;;;6.100001;5.299999;;;;;;;13.81;80.62891;95572.97;;;;
2019/07/03 04:24:18;;;;;;;4.749999;4.35;;;;;;;13.87;80.87793;95579.58;;;;
2019/07/03 04:25:20;;;;;;;4.749999;4.35;;;;;;;13.87;80.87793;95579.58;;;;
2019/07/03 04:26:21;;;;;;;4.749999;4.35;;;;;;;13.87;80.87793;95579.58;;;;
2019/07/03 04:27:22;;;;;;;4.749999;4.35;;;;;;;13.87;80.87793;95579.58;;;;
2019/07/03 04:28:23;;;;;;;4.749999;4.35;;;;;;;13.87;80.87793;95579.58;;;;
2019/07/03 04:29:24;;;;;;;4.749999;4.35;;;;;;;13.87;80.87793;95579.58;;;;
2019/07/03 04:30:25;;;;;;;4.749999;4.35;;;;;;;13.87;80.87793;95579.58;;;;
2019/07/03 04:31:26;;;;;;;4.749999;4.35;;;;;;;13.87;80.87793;95579.58;;;;
2019/07/03 04:32:27;;;;;;;4.749999;4.35;;;;;;;13.87;80.87793;95579.58;;;;
2019/07/03 04:33:28;;;;;;;4.749999;4.35;;;;;;;13.87;80.87793;95579.58;;;;
2019/07/03 04:34:29;;;;;;;6.299999;4.6;;;;;;;14.05;80.39355;95573.46;;;;
2019/07/03 04:35:30;;;;;;;6.299999;4.6;;;;;;;14.05;80.39355;95573.46;;;;
2019/07/03 04:36:31;;;;;;;6.299999;4.6;;;;;;;14.05;80.39355;95573.46;;;;
2019/07/03 04:37:32;;;;;;;6.299999;4.6;;;;;;;14.05;80.39355;95573.46;;;;
2019/07/03 04:38:34;;;;;;;6.299999;4.6;;;;;;;14.05;80.39355;95573.46;;;;
2019/07/03 04:39:35;;;;;;;6.299999;4.6;;;;;;;14.05;80.39355;95573.46;;;;
2019/07/03 04:40:36;;;;;;;6.299999;4.6;;;;;;;14.05;80.39355;95573.46;;;;
2019/07/03 04:41:37;;;;;;;6.299999;4.6;;;;;;;14.05;80.39355;95573.46;;;;
2019/07/03 04:42:38;;;;;;;6.299999;4.6;;;;;;;14.05;80.39355;95573.46;;;;
2019/07/03 04:43:39;;;;;;;6.299999;4.6;;;;;;;14.05;80.39355;95573.46;;;;
2019/07/03 04:44:40;;;;;;;5.4;4.85;;;;;;;14.2;80.01074;95581.41;;;;
2019/07/03 04:45:41;;;;;;;5.4;4.85;;;;;;;14.2;80.01074;95581.41;;;;
2019/07/03 04:46:42;;;;;;;5.4;4.85;;;;;;;14.2;80.01074;95581.41;;;;
2019/07/03 04:47:43;;;;;;;5.4;4.85;;;;;;;14.2;80.01074;95581.41;;;;
2019/07/03 04:48:44;;;;;;;5.4;4.85;;;;;;;14.2;80.01074;95581.41;;;;
2019/07/03 04:49:45;;;;;;;5.4;4.85;;;;;;;14.2;80.01074;95581.41;;;;
2019/07/03 04:50:46;;;;;;;5.4;4.85;;;;;;;14.2;80.01074;95581.41;;;;
2019/07/03 04:51:47;;;;;;;5.4;4.85;;;;;;;14.2;80.01074;95581.41;;;;
2019/07/03 04:52:48;;;;;;;5.4;4.85;;;;;;;14.2;80.01074;95581.41;;;;
2019/07/03 04:53:50;;;;;;;5.4;4.85;;;;;;;14.2;80.01074;95581.41;;;;
2019/07/03 04:54:51;;;;;;;5.4;4.85;;;;;;;14.2;80.01074;95581.41;;;;
2019/07/03 04:55:52;;;;;;;5.7;4.65;;;;;;;14.47;79.80176;95583.7;;;;
2019/07/03 04:56:53;;;;;;;5.7;4.65;;;;;;;14.47;79.80176;95583.7;;;;
2019/07/03 04:57:54;;;;;;;5.7;4.65;;;;;;;14.47;79.80176;95583.7;;;;
2019/07/03 04:58:55;;;;;;;5.7;4.65;;;;;;;14.47;79.80176;95583.7;;;;
2019/07/03 04:59:56;;;;;;;5.7;4.65;;;;;;;14.47;79.80176;95583.7;;;;
2019/07/03 05:00:57;;;;;;;5.7;4.65;;;;;;;14.47;79.80176;95583.7;;;;
2019/07/03 05:01:58;;;;;;;5.7;4.65;;;;;;;14.47;79.80176;95583.7;;;;
2019/07/03 05:02:59;;;;;;;5.7;4.65;;;;;;;14.47;79.80176;95583.7;;;;
2019/07/03 05:04:00;;;;;;;5.7;4.65;;;;;;;14.47;79.80176;95583.7;;;;
2019/07/03 05:05:01;;;;;;;5.7;4.65;;;;;;;14.47;79.80176;95583.7;;;;
2019/07/03 05:06:03;;;;;;;6.299999;4.5;;;;;;;14.78;79.19043;95587.08;;;;
2019/07/03 05:07:04;;;;;;;6.299999;4.5;;;;;;;14.78;79.19043;95587.08;;;;
2019/07/03 05:08:05;;;;;;;6.299999;4.5;;;;;;;14.78;79.19043;95587.08;;;;
2019/07/03 05:09:06;;;;;;;6.299999;4.5;;;;;;;14.78;79.19043;95587.08;;;;
2019/07/03 05:10:07;;;;;;;6.299999;4.5;;;;;;;14.78;79.19043;95587.08;;;;
2019/07/03 05:11:10;;;;;;;6.299999;4.5;;;;;;;14.78;79.19043;95587.08;;;;
2019/07/03 05:12:11;;;;;;;6.299999;4.5;;;;;;;14.78;79.19043;95587.08;;;;
2019/07/03 05:13:12;;;;;;;6.299999;4.5;;;;;;;14.78;79.19043;95587.08;;;;
2019/07/03 05:14:13;;;;;;;6.299999;4.5;;;;;;;14.78;79.19043;95587.08;;;;
2019/07/03 05:15:15;;;;;;;6.299999;4.5;;;;;;;14.78;79.19043;95587.08;;;;
2019/07/03 05:16:16;;;;;;;6.299999;4.5;;;;;;;14.78;79.19043;95587.08;;;;
2019/07/03 05:17:18;;;;;;;4.3;3.9;;;;;;;15.2;78.68164;95579.49;;;;
2019/07/03 05:18:19;;;;;;;4.3;3.9;;;;;;;15.2;78.68164;95579.49;;;;
2019/07/03 05:19:20;;;;;;;4.3;3.9;;;;;;;15.2;78.68164;95579.49;;;;
2019/07/03 05:20:21;;;;;;;4.3;3.9;;;;;;;15.2;78.68164;95579.49;;;;
2019/07/03 05:21:23;;;;;;;4.3;3.9;;;;;;;15.2;78.68164;95579.49;;;;
2019/07/03 05:22:24;;;;;;;4.3;3.9;;;;;;;15.2;78.68164;95579.49;;;;
2019/07/03 05:23:25;;;;;;;4.3;3.9;;;;;;;15.2;78.68164;95579.49;;;;
2019/07/03 05:24:26;;;;;;;4.3;3.9;;;;;;;15.2;78.68164;95579.49;;;;
2019/07/03 05:25:27;;;;;;;4.3;3.9;;;;;;;15.2;78.68164;95579.49;;;;
2019/07/03 05:26:28;;;;;;;4.3;3.9;;;;;;;15.2;78.68164;95579.49;;;;
2019/07/03 05:27:29;;;;;;;4.9;3.9;;;;;;;15.6;77.64941;95568.59;;;;
2019/07/03 05:28:30;;;;;;;4.9;3.9;;;;;;;15.6;77.64941;95568.59;;;;
2019/07/03 05:29:31;;;;;;;4.9;3.9;;;;;;;15.6;77.64941;95568.59;;;;
2019/07/03 05:30:32;;;;;;;4.9;3.9;;;;;;;15.6;77.64941;95568.59;;;;
2019/07/03 05:31:33;;;;;;;4.9;3.9;;;;;;;15.6;77.64941;95568.59;;;;
2019/07/03 05:32:34;;;;;;;4.9;3.9;;;;;;;15.6;77.64941;95568.59;;;;
2019/07/03 05:33:36;;;;;;;4.9;3.9;;;;;;;15.6;77.64941;95568.59;;;;
2019/07/03 05:34:37;;;;;;;4.9;3.9;;;;;;;15.6;77.64941;95568.59;;;;
2019/07/03 05:35:38;;;;;;;4.9;3.9;;;;;;;15.6;77.64941;95568.59;;;;
2019/07/03 05:36:39;;;;;;;4.9;3.9;;;;;;;15.6;77.64941;95568.59;;;;
2019/07/03 05:37:40;;;;;;;4.25;3.85;;;;;;;16.11;76.40625;95577.01;;;;